Pagrindinis puslapis
METAR-TAF:

METAR-TAF

Oro uostai :

Manta, Ekvadoras

platuma: 00-57S, ilguma: 080-41W, Aukštis: 13 m

Dabartinis oras

Ataskaita buvo paskelbta 57 minutes, ne 14:00 UTC
Vėjas 9 kt iš Pietų
Temperatūra 23°C
Drėgmė 83%
Slėgis 1013 hPa
Matomumas 10 km arba daugiau
Apsiniaukę ne aukštis 2000 ft

METAR: SEMT 201400Z 18009KT 9999 OVC020 23/20 Q1013 RMK A2994

Laikas: 09:57 (14:57 UTC)

Prognozė

Ataskaita buvo paskelbta 5 valandos ir 32 minutes, ne 09:25 UTC
Prognozė galioja nuo 20 metu 12 UTC su 21 metu 12 UTC
Vėjas 4 kt iš Pietų/Pietvakarių
Matomumas 10 km arba daugiau
Apsiniaukę ne aukštis 2000 ft
Tapsmas
nuo 20 metu 19 UTC su 20 metu 20 UTC
Vėjas 12 kt iš Vakarų/Pietvakarių
Tapsmas
nuo 21 metu 05 UTC su 21 metu 06 UTC
Vėjas 3 kt iš Pietų/Pietvakarių

TAF: SEMT 200925Z 2012/2112 20004KT 9999 OVC020 BECMG 2019/2020 24012KT BECMG 2105/2106 21003KT TX29/1920Z TN21/2110Z

Orai ataskaitas ir orų prognozės (METAR, TAF).

turimą stotys yra geltonos ir raudonos taškus žemėlapyje.

Perkelti pele per norėdami pamatyti stoties vardą.

Tada spustelėkite, norėdami matyti oro stebėjimo ir prognozės.

Norėdami pakeisti žemėlapį: spustelėkite ant žalios mygtukų su juodo kryžiaus žemyn,; žalią mygtuką su brūkšneliu, jei norite nutolinti; arba žalių rodyklių gretimoms žemėlapius.


METAR-TAF: